Lpg_melina — SYFW — position and weather

sailwx.info

Track history (hours):
 
Tides and Currents Weather Stations Pressure Air Temp Water Temp Dewpoint Dewpoint Depression Visibility Wind Speed Wind Dir Waves Ship Positions

Lpg_melina

Last reported at 2017-Sep-24 19:29 UTC. Time now 2017-Sep-24 19:36 UTC.
Position N 38°01' E 023°32'.

Length 114 m; draft 5.3 m.

Type: Ship (hazmat cat A). MMSI: 239953000.

Date/timePositionNaut miles runAvg speedWind from/ knotsBaromVisibWave heightAir tempDewpointWater temp
2017-Sep-24 19:29N 38°01' E 023°32'0 0.0
2017-Sep-24 19:00N 38°01' E 023°32'0 0.0
2017-Sep-24 18:29N 38°01' E 023°32'0 0.0
2017-Sep-24 17:59N 38°01' E 023°32'0 0.0
2017-Sep-24 17:29N 38°01' E 023°32'0 0.1
2017-Sep-24 16:59N 38°01' E 023°32'0 0.1
2017-Sep-24 16:29N 38°01' E 023°32'0 0.1
2017-Sep-24 15:59N 38°01' E 023°32'0 0.0
2017-Sep-24 15:29N 38°01' E 023°32'0 0.0
2017-Sep-24 14:59N 38°01' E 023°32'0 0.2
2017-Sep-24 14:29N 38°01' E 023°32'0 0.0
2017-Sep-24 13:59N 38°01' E 023°32'0 0.0
2017-Sep-24 13:29N 38°01' E 023°32'0 0.0
2017-Sep-24 12:59N 38°01' E 023°32'0 0.0
2017-Sep-24 12:29N 38°01' E 023°32'0 0.0
2017-Sep-24 11:59N 38°01' E 023°32'0 0.0
2017-Sep-24 11:29N 38°01' E 023°32'0 0.0
2017-Sep-24 10:59N 38°01' E 023°32'0 0.0
2017-Sep-24 10:29N 38°01' E 023°32'0 0.0
2017-Sep-24 09:59N 38°01' E 023°32'0 0.1
2017-Sep-24 09:29N 38°01' E 023°32'0 0.1
2017-Sep-24 08:59N 38°01' E 023°32'0 0.1
2017-Sep-24 08:29N 38°01' E 023°32'0 0.0
2017-Sep-24 07:59N 38°01' E 023°32'0 0.0
2017-Sep-24 07:29N 38°01' E 023°32'0 0.0
2017-Sep-24 06:59N 38°01' E 023°32'0 0.0
2017-Sep-24 06:29N 38°01' E 023°32'0 0.0
2017-Sep-24 05:59N 38°01' E 023°32'0 0.0
2017-Sep-24 05:29N 38°01' E 023°32'0 0.0
2017-Sep-24 04:59N 38°01' E 023°32'0 0.0
2017-Sep-24 04:29N 38°01' E 023°32'0 0.0
2017-Sep-24 03:59N 38°01' E 023°32'0 0.1
2017-Sep-24 03:29N 38°01' E 023°32'0 0.0
2017-Sep-24 02:59N 38°01' E 023°32'0 0.0
2017-Sep-24 02:29N 38°01' E 023°32'0 0.0
2017-Sep-24 01:59N 38°01' E 023°32'0 0.0
2017-Sep-24 01:29N 38°01' E 023°32'0 0.0
2017-Sep-24 00:59N 38°01' E 023°32'0 0.0
2017-Sep-24 00:29N 38°01' E 023°32'0 0.0
2017-Sep-23 23:59N 38°01' E 023°32'0 0.0
2017-Sep-23 23:29N 38°01' E 023°32'0 0.0
2017-Sep-23 22:59N 38°01' E 023°32'0 0.0
2017-Sep-23 22:29N 38°01' E 023°32'0 0.0
2017-Sep-23 21:59N 38°01' E 023°32'0 0.0
2017-Sep-23 21:29N 38°01' E 023°32'0 0.0
2017-Sep-23 20:59N 38°01' E 023°32'0 0.1
2017-Sep-23 20:29N 38°01' E 023°32'0 0.0
2017-Sep-23 19:59N 38°01' E 023°32'39 0.9
2017-Sep-22 01:40N 37°44' E 024°16'141 3.2
2017-Sep-20 06:00N 39°54' E 023°07'1911.1
2017-Sep-20 04:15N 39°37' E 023°18'510.9
2017-Sep-20 03:49N 39°32' E 023°21'1011.0
2017-Sep-20 02:53N 39°23' E 023°27'611.0
2017-Sep-20 02:21N 39°18' E 023°30'3910.8
2017-Sep-19 22:42N 38°49' E 024°04'311.5
2017-Sep-19 22:26N 38°47' E 024°08'711.3
2017-Sep-19 21:50N 38°43' E 024°15'411.2
2017-Sep-19 21:28N 38°40' E 024°18'55 9.4
2017-Sep-19 15:32N 37°45' E 024°17'011.7
2017-Sep-19 15:30N 37°44' E 024°17'1511.0
2017-Sep-19 14:07N 37°37' E 024°00'111.7
2017-Sep-19 14:00N 37°37' E 023°58'611.3
2017-Sep-19 13:30N 37°38' E 023°51'611.4
2017-Sep-19 13:00N 37°39' E 023°44'510.5
2017-Sep-19 12:30N 37°43' E 023°40'611.3
2017-Sep-19 12:00N 37°48' E 023°38'611.1
2017-Sep-19 11:30N 37°54' E 023°37'4 8.1
2017-Sep-19 11:00N 37°57' E 023°34'4 8.0
2017-Sep-19 10:30N 38°01' E 023°35'1 0.7
2017-Sep-19 09:25N 38°02' E 023°36'0 0.0
2017-Sep-19 08:58N 38°02' E 023°36'0 0.0
2017-Sep-19 08:28N 38°02' E 023°36'0 0.0
2017-Sep-19 07:58N 38°02' E 023°36'0 0.0
2017-Sep-19 07:28N 38°02' E 023°36'0 0.0
2017-Sep-19 06:58N 38°02' E 023°36'0 0.0
2017-Sep-19 06:25N 38°02' E 023°36'0 0.0
2017-Sep-19 05:58N 38°02' E 023°36'0 0.0
2017-Sep-19 05:25N 38°02' E 023°36'0 0.0
2017-Sep-19 04:58N 38°02' E 023°36'0 0.0
2017-Sep-19 04:28N 38°02' E 023°36'0 0.0
2017-Sep-19 03:55N 38°02' E 023°36'0 0.0
2017-Sep-19 03:25N 38°02' E 023°36'0 0.0
2017-Sep-19 02:58N 38°02' E 023°36'0 0.0
2017-Sep-19 02:28N 38°02' E 023°36'0 0.0
2017-Sep-19 01:58N 38°02' E 023°36'0 0.0
2017-Sep-19 01:25N 38°02' E 023°36'0 0.0
2017-Sep-19 00:55N 38°02' E 023°36'0 0.0
2017-Sep-19 00:28N 38°02' E 023°36'0 0.0
2017-Sep-18 23:58N 38°02' E 023°36'0 0.0
2017-Sep-18 23:28N 38°02' E 023°36'0 0.0
2017-Sep-18 22:58N 38°02' E 023°36'0 0.0
2017-Sep-18 22:28N 38°02' E 023°36'0 0.0
2017-Sep-18 21:58N 38°02' E 023°36'0 0.0
2017-Sep-18 21:28N 38°02' E 023°36'0 0.0
2017-Sep-18 20:58N 38°02' E 023°36'0 0.0
2017-Sep-18 20:28N 38°02' E 023°36'0 0.0
2017-Sep-18 19:58N 38°02' E 023°36'0 0.0
2017-Sep-18 19:28N 38°02' E 023°36'0 0.0
2017-Sep-18 18:52N 38°02' E 023°36'0 0.0
2017-Sep-18 18:28N 38°02' E 023°36'0 0.0
2017-Sep-18 17:52N 38°02' E 023°36'0 0.0
2017-Sep-18 17:22N 38°02' E 023°36'0 0.0
2017-Sep-18 16:58N 38°02' E 023°36'0 0.0
2017-Sep-18 16:28N 38°02' E 023°36'0 0.0
2017-Sep-18 15:55N 38°02' E 023°36'0 0.0
2017-Sep-18 15:28N 38°02' E 023°36'1 1.9
2017-Sep-18 15:01N 38°01' E 023°35'2 3.7
2017-Sep-18 14:31N 38°01' E 023°32'0 0.1
2017-Sep-18 14:00N 38°01' E 023°32'0 0.0
2017-Sep-18 13:30N 38°01' E 023°32'0 0.0
2017-Sep-18 13:00N 38°01' E 023°32'0 0.0
2017-Sep-18 12:30N 38°01' E 023°32'0 0.0
2017-Sep-18 12:00N 38°01' E 023°32'0 0.1
2017-Sep-18 11:30N 38°01' E 023°32'0 0.0
2017-Sep-18 11:00N 38°01' E 023°32'0 0.0
2017-Sep-18 10:30N 38°01' E 023°32'0 0.0
2017-Sep-18 10:00N 38°01' E 023°32'0 0.0
2017-Sep-18 09:30N 38°01' E 023°32'0 0.3
2017-Sep-18 09:01N 38°01' E 023°32'4 7.8
2017-Sep-18 08:30N 37°57' E 023°34'4 7.8
2017-Sep-18 08:01N 37°54' E 023°36'611.4
2017-Sep-18 07:31N 37°49' E 023°40'611.7
2017-Sep-18 07:01N 37°44' E 023°43'611.0
2017-Sep-18 06:30N 37°39' E 023°47'611.7
2017-Sep-18 06:00N 37°38' E 023°54'611.5
2017-Sep-18 05:30N 37°37' E 024°02'1311.4
2017-Sep-18 04:20N 37°44' E 024°16'4710.1
2017-Sep-17 23:41N 38°30' E 024°25'212.9
2017-Sep-17 23:30N 38°32' E 024°24'1012.5
2017-Sep-17 22:41N 38°41' E 024°18'212.1
2017-Sep-17 22:31N 38°42' E 024°16'1011.6
2017-Sep-17 21:37N 38°48' E 024°05'211.5
2017-Sep-17 21:27N 38°49' E 024°03'611.7
2017-Sep-17 20:58N 38°53' E 023°57'1111.9
2017-Sep-17 20:04N 38°59' E 023°46'1810.8
2017-Sep-17 18:26N 39°13' E 023°33'1711.9
2017-Sep-17 16:59N 39°29' E 023°23'911.6
2017-Sep-17 16:12N 39°37' E 023°17'211.4
2017-Sep-17 15:59N 39°39' E 023°16'611.4
2017-Sep-17 15:30N 39°44' E 023°13'711.5
2017-Sep-17 14:55N 39°50' E 023°09'511.6
2017-Sep-17 14:28N 39°55' E 023°06'92 2.2
2017-Sep-15 21:35N 38°41' E 024°17'110.9
2017-Sep-15 21:30N 38°41' E 024°18'710.8
2017-Sep-15 20:50N 38°35' E 024°22'59 9.3
2017-Sep-15 14:27N 37°37' E 024°05'511.9
2017-Sep-15 14:00N 37°37' E 023°59'611.6
2017-Sep-15 13:30N 37°38' E 023°51'611.5
2017-Sep-15 13:00N 37°39' E 023°44'510.8
2017-Sep-15 12:30N 37°43' E 023°41'611.8
2017-Sep-15 12:00N 37°49' E 023°37'611.8
2017-Sep-15 11:31N 37°55' E 023°36'4 8.4
2017-Sep-15 11:01N 37°58' E 023°33'4 8.8
2017-Sep-15 10:30N 38°02' E 023°36'0 0.4
2017-Sep-15 09:55N 38°02' E 023°36'0 0.0
2017-Sep-15 09:25N 38°02' E 023°36'0 0.0
2017-Sep-15 08:58N 38°02' E 023°36'0 0.0
2017-Sep-15 08:28N 38°02' E 023°36'0 0.0
2017-Sep-15 07:58N 38°02' E 023°36'0 0.0
2017-Sep-15 07:25N 38°02' E 023°36'0 0.0
2017-Sep-15 06:58N 38°02' E 023°36'0 0.0
2017-Sep-15 06:28N 38°02' E 023°36'0 0.0
2017-Sep-15 06:01N 38°02' E 023°36'0 0.0
2017-Sep-15 05:28N 38°02' E 023°36'0 0.0
2017-Sep-15 04:58N 38°02' E 023°36'0 0.0
2017-Sep-15 04:22N 38°02' E 023°36'0 0.0
2017-Sep-15 04:01N 38°02' E 023°36'0 0.0
2017-Sep-15 03:16N 38°02' E 023°36'0 0.0
2017-Sep-15 02:58N 38°02' E 023°36'0 0.0
2017-Sep-15 02:28N 38°02' E 023°36'0 0.0
2017-Sep-15 01:58N 38°02' E 023°36'0 0.0
2017-Sep-15 01:28N 38°02' E 023°36'0 0.0
2017-Sep-15 01:01N 38°02' E 023°36'0 0.0
2017-Sep-15 00:28N 38°02' E 023°36'0 0.0
2017-Sep-14 23:57N 38°02' E 023°36'0 0.0
2017-Sep-14 23:19N 38°02' E 023°36'0 0.0
2017-Sep-14 22:58N 38°02' E 023°36'0 0.0
2017-Sep-14 22:28N 38°02' E 023°36'0 0.0
2017-Sep-14 22:01N 38°02' E 023°36'0 0.0
2017-Sep-14 21:31N 38°02' E 023°36'0 0.0
2017-Sep-14 20:55N 38°02' E 023°36'0 0.0
2017-Sep-14 20:13N 38°02' E 023°36'0 0.0
2017-Sep-14 19:55N 38°02' E 023°36'0 0.0
2017-Sep-14 19:31N 38°02' E 023°36'  
Track history (hours):
 
Tides and Currents Weather Stations Pressure Air Temp Water Temp Dewpoint Dewpoint Depression Visibility Wind Speed Wind Dir Waves Ship Positions

Lpg_melina

Last reported at 2017-Sep-24 19:29 UTC. Time now 2017-Sep-24 19:36 UTC.
Position N 38°01' E 023°32'.

Length 114 m; draft 5.3 m.

Type: Ship (hazmat cat A). MMSI: 239953000.

Date/timePositionNaut miles runAvg speedWind from/ knotsBaromVisibWave heightAir tempDewpointWater temp
2017-Sep-24 19:29N 38°01' E 023°32'0 0.0
2017-Sep-24 19:00N 38°01' E 023°32'0 0.0
2017-Sep-24 18:29N 38°01' E 023°32'0 0.0
2017-Sep-24 17:59N 38°01' E 023°32'0 0.0
2017-Sep-24 17:29N 38°01' E 023°32'0 0.1
2017-Sep-24 16:59N 38°01' E 023°32'0 0.1
2017-Sep-24 16:29N 38°01' E 023°32'0 0.1
2017-Sep-24 15:59N 38°01' E 023°32'0 0.0
2017-Sep-24 15:29N 38°01' E 023°32'0 0.0
2017-Sep-24 14:59N 38°01' E 023°32'0 0.2
2017-Sep-24 14:29N 38°01' E 023°32'0 0.0
2017-Sep-24 13:59N 38°01' E 023°32'0 0.0
2017-Sep-24 13:29N 38°01' E 023°32'0 0.0
2017-Sep-24 12:59N 38°01' E 023°32'0 0.0
2017-Sep-24 12:29N 38°01' E 023°32'0 0.0
2017-Sep-24 11:59N 38°01' E 023°32'0 0.0
2017-Sep-24 11:29N 38°01' E 023°32'0 0.0
2017-Sep-24 10:59N 38°01' E 023°32'0 0.0
2017-Sep-24 10:29N 38°01' E 023°32'0 0.0
2017-Sep-24 09:59N 38°01' E 023°32'0 0.1
2017-Sep-24 09:29N 38°01' E 023°32'0 0.1
2017-Sep-24 08:59N 38°01' E 023°32'0 0.1
2017-Sep-24 08:29N 38°01' E 023°32'0 0.0
2017-Sep-24 07:59N 38°01' E 023°32'0 0.0
2017-Sep-24 07:29N 38°01' E 023°32'0 0.0
2017-Sep-24 06:59N 38°01' E 023°32'0 0.0
2017-Sep-24 06:29N 38°01' E 023°32'0 0.0
2017-Sep-24 05:59N 38°01' E 023°32'0 0.0
2017-Sep-24 05:29N 38°01' E 023°32'0 0.0
2017-Sep-24 04:59N 38°01' E 023°32'0 0.0
2017-Sep-24 04:29N 38°01' E 023°32'0 0.0
2017-Sep-24 03:59N 38°01' E 023°32'0 0.1
2017-Sep-24 03:29N 38°01' E 023°32'0 0.0
2017-Sep-24 02:59N 38°01' E 023°32'0 0.0
2017-Sep-24 02:29N 38°01' E 023°32'0 0.0
2017-Sep-24 01:59N 38°01' E 023°32'0 0.0
2017-Sep-24 01:29N 38°01' E 023°32'0 0.0
2017-Sep-24 00:59N 38°01' E 023°32'0 0.0
2017-Sep-24 00:29N 38°01' E 023°32'0 0.0
2017-Sep-23 23:59N 38°01' E 023°32'0 0.0
2017-Sep-23 23:29N 38°01' E 023°32'0 0.0
2017-Sep-23 22:59N 38°01' E 023°32'0 0.0
2017-Sep-23 22:29N 38°01' E 023°32'0 0.0
2017-Sep-23 21:59N 38°01' E 023°32'0 0.0
2017-Sep-23 21:29N 38°01' E 023°32'0 0.0
2017-Sep-23 20:59N 38°01' E 023°32'0 0.1
2017-Sep-23 20:29N 38°01' E 023°32'0 0.0
2017-Sep-23 19:59N 38°01' E 023°32'39 0.9
2017-Sep-22 01:40N 37°44' E 024°16'141 3.2
2017-Sep-20 06:00N 39°54' E 023°07'1911.1
2017-Sep-20 04:15N 39°37' E 023°18'510.9
2017-Sep-20 03:49N 39°32' E 023°21'1011.0
2017-Sep-20 02:53N 39°23' E 023°27'611.0
2017-Sep-20 02:21N 39°18' E 023°30'3910.8
2017-Sep-19 22:42N 38°49' E 024°04'311.5
2017-Sep-19 22:26N 38°47' E 024°08'711.3
2017-Sep-19 21:50N 38°43' E 024°15'411.2
2017-Sep-19 21:28N 38°40' E 024°18'55 9.4
2017-Sep-19 15:32N 37°45' E 024°17'011.7
2017-Sep-19 15:30N 37°44' E 024°17'1511.0
2017-Sep-19 14:07N 37°37' E 024°00'111.7
2017-Sep-19 14:00N 37°37' E 023°58'611.3
2017-Sep-19 13:30N 37°38' E 023°51'611.4
2017-Sep-19 13:00N 37°39' E 023°44'510.5
2017-Sep-19 12:30N 37°43' E 023°40'611.3
2017-Sep-19 12:00N 37°48' E 023°38'611.1
2017-Sep-19 11:30N 37°54' E 023°37'4 8.1
2017-Sep-19 11:00N 37°57' E 023°34'4 8.0
2017-Sep-19 10:30N 38°01' E 023°35'1 0.7
2017-Sep-19 09:25N 38°02' E 023°36'0 0.0
2017-Sep-19 08:58N 38°02' E 023°36'0 0.0
2017-Sep-19 08:28N 38°02' E 023°36'0 0.0
2017-Sep-19 07:58N 38°02' E 023°36'0 0.0
2017-Sep-19 07:28N 38°02' E 023°36'0 0.0
2017-Sep-19 06:58N 38°02' E 023°36'0 0.0
2017-Sep-19 06:25N 38°02' E 023°36'0 0.0
2017-Sep-19 05:58N 38°02' E 023°36'0 0.0
2017-Sep-19 05:25N 38°02' E 023°36'0 0.0
2017-Sep-19 04:58N 38°02' E 023°36'0 0.0
2017-Sep-19 04:28N 38°02' E 023°36'0 0.0
2017-Sep-19 03:55N 38°02' E 023°36'0 0.0
2017-Sep-19 03:25N 38°02' E 023°36'0 0.0
2017-Sep-19 02:58N 38°02' E 023°36'0 0.0
2017-Sep-19 02:28N 38°02' E 023°36'0 0.0
2017-Sep-19 01:58N 38°02' E 023°36'0 0.0
2017-Sep-19 01:25N 38°02' E 023°36'0 0.0
2017-Sep-19 00:55N 38°02' E 023°36'0 0.0
2017-Sep-19 00:28N 38°02' E 023°36'0 0.0
2017-Sep-18 23:58N 38°02' E 023°36'0 0.0
2017-Sep-18 23:28N 38°02' E 023°36'0 0.0
2017-Sep-18 22:58N 38°02' E 023°36'0 0.0
2017-Sep-18 22:28N 38°02' E 023°36'0 0.0
2017-Sep-18 21:58N 38°02' E 023°36'0 0.0
2017-Sep-18 21:28N 38°02' E 023°36'0 0.0
2017-Sep-18 20:58N 38°02' E 023°36'0 0.0
2017-Sep-18 20:28N 38°02' E 023°36'0 0.0
2017-Sep-18 19:58N 38°02' E 023°36'0 0.0
2017-Sep-18 19:28N 38°02' E 023°36'0 0.0
2017-Sep-18 18:52N 38°02' E 023°36'0 0.0
2017-Sep-18 18:28N 38°02' E 023°36'0 0.0
2017-Sep-18 17:52N 38°02' E 023°36'0 0.0
2017-Sep-18 17:22N 38°02' E 023°36'0 0.0
2017-Sep-18 16:58N 38°02' E 023°36'0 0.0
2017-Sep-18 16:28N 38°02' E 023°36'0 0.0
2017-Sep-18 15:55N 38°02' E 023°36'0 0.0
2017-Sep-18 15:28N 38°02' E 023°36'1 1.9
2017-Sep-18 15:01N 38°01' E 023°35'2 3.7
2017-Sep-18 14:31N 38°01' E 023°32'0 0.1
2017-Sep-18 14:00N 38°01' E 023°32'0 0.0
2017-Sep-18 13:30N 38°01' E 023°32'0 0.0
2017-Sep-18 13:00N 38°01' E 023°32'0 0.0
2017-Sep-18 12:30N 38°01' E 023°32'0 0.0
2017-Sep-18 12:00N 38°01' E 023°32'0 0.1
2017-Sep-18 11:30N 38°01' E 023°32'0 0.0
2017-Sep-18 11:00N 38°01' E 023°32'0 0.0
2017-Sep-18 10:30N 38°01' E 023°32'0 0.0
2017-Sep-18 10:00N 38°01' E 023°32'0 0.0
2017-Sep-18 09:30N 38°01' E 023°32'0 0.3
2017-Sep-18 09:01N 38°01' E 023°32'4 7.8
2017-Sep-18 08:30N 37°57' E 023°34'4 7.8
2017-Sep-18 08:01N 37°54' E 023°36'611.4
2017-Sep-18 07:31N 37°49' E 023°40'611.7
2017-Sep-18 07:01N 37°44' E 023°43'611.0
2017-Sep-18 06:30N 37°39' E 023°47'611.7
2017-Sep-18 06:00N 37°38' E 023°54'611.5
2017-Sep-18 05:30N 37°37' E 024°02'1311.4
2017-Sep-18 04:20N 37°44' E 024°16'4710.1
2017-Sep-17 23:41N 38°30' E 024°25'212.9
2017-Sep-17 23:30N 38°32' E 024°24'1012.5
2017-Sep-17 22:41N 38°41' E 024°18'212.1
2017-Sep-17 22:31N 38°42' E 024°16'1011.6
2017-Sep-17 21:37N 38°48' E 024°05'211.5
2017-Sep-17 21:27N 38°49' E 024°03'611.7
2017-Sep-17 20:58N 38°53' E 023°57'1111.9
2017-Sep-17 20:04N 38°59' E 023°46'1810.8
2017-Sep-17 18:26N 39°13' E 023°33'1711.9
2017-Sep-17 16:59N 39°29' E 023°23'911.6
2017-Sep-17 16:12N 39°37' E 023°17'211.4
2017-Sep-17 15:59N 39°39' E 023°16'611.4
2017-Sep-17 15:30N 39°44' E 023°13'711.5
2017-Sep-17 14:55N 39°50' E 023°09'511.6
2017-Sep-17 14:28N 39°55' E 023°06'92 2.2
2017-Sep-15 21:35N 38°41' E 024°17'110.9
2017-Sep-15 21:30N 38°41' E 024°18'710.8
2017-Sep-15 20:50N 38°35' E 024°22'59 9.3
2017-Sep-15 14:27N 37°37' E 024°05'511.9
2017-Sep-15 14:00N 37°37' E 023°59'611.6
2017-Sep-15 13:30N 37°38' E 023°51'611.5
2017-Sep-15 13:00N 37°39' E 023°44'510.8
2017-Sep-15 12:30N 37°43' E 023°41'611.8
2017-Sep-15 12:00N 37°49' E 023°37'611.8
2017-Sep-15 11:31N 37°55' E 023°36'4 8.4
2017-Sep-15 11:01N 37°58' E 023°33'4 8.8
2017-Sep-15 10:30N 38°02' E 023°36'0 0.4
2017-Sep-15 09:55N 38°02' E 023°36'0 0.0
2017-Sep-15 09:25N 38°02' E 023°36'0 0.0
2017-Sep-15 08:58N 38°02' E 023°36'0 0.0
2017-Sep-15 08:28N 38°02' E 023°36'0 0.0
2017-Sep-15 07:58N 38°02' E 023°36'0 0.0
2017-Sep-15 07:25N 38°02' E 023°36'0 0.0
2017-Sep-15 06:58N 38°02' E 023°36'0 0.0
2017-Sep-15 06:28N 38°02' E 023°36'0 0.0
2017-Sep-15 06:01N 38°02' E 023°36'0 0.0
2017-Sep-15 05:28N 38°02' E 023°36'0 0.0
2017-Sep-15 04:58N 38°02' E 023°36'0 0.0
2017-Sep-15 04:22N 38°02' E 023°36'0 0.0
2017-Sep-15 04:01N 38°02' E 023°36'0 0.0
2017-Sep-15 03:16N 38°02' E 023°36'0 0.0
2017-Sep-15 02:58N 38°02' E 023°36'0 0.0
2017-Sep-15 02:28N 38°02' E 023°36'0 0.0
2017-Sep-15 01:58N 38°02' E 023°36'0 0.0
2017-Sep-15 01:28N 38°02' E 023°36'0 0.0
2017-Sep-15 01:01N 38°02' E 023°36'0 0.0
2017-Sep-15 00:28N 38°02' E 023°36'0 0.0
2017-Sep-14 23:57N 38°02' E 023°36'0 0.0
2017-Sep-14 23:19N 38°02' E 023°36'0 0.0
2017-Sep-14 22:58N 38°02' E 023°36'0 0.0
2017-Sep-14 22:28N 38°02' E 023°36'0 0.0
2017-Sep-14 22:01N 38°02' E 023°36'0 0.0
2017-Sep-14 21:31N 38°02' E 023°36'0 0.0
2017-Sep-14 20:55N 38°02' E 023°36'0 0.0
2017-Sep-14 20:13N 38°02' E 023°36'0 0.0
2017-Sep-14 19:55N 38°02' E 023°36'0 0.0
2017-Sep-14 19:31N 38°02' E 023°36'  

Dump ship's entire track history